Canefield Airport

Fair
23oC (73oF)

Fair


Winds: Southerly @ 02kts / 04km/h

Humidity: 74%

Barometric Pressure: 1012 mb

Accumulated Rainfall for February: 22.6 mm

Updated: 20:00 local time (00:00 UTC)

Douglas-Charles Airport

Fair
24oC (75oF)

Fair


Winds: Westerly @ 04kts / 07km/h

Humidity: 82%

Barometric Pressure: 1014 mb

Accumulated Rainfall for February: 29.6 mm

Updated: 20:00 local time (00:00 UTC)

Satellite Imagery

Satellite Imagery
Click image for larger view. (Source: National Hurricane Center).

Aviation Routine Report (METAR)

Douglas-Charles: METAR TDPD 210000Z 27004KT 9999 FEW019 24/20 Q1014=
Canefield: METAR TDCF 210000Z 19002KT 9999 FEW019 23/19 Q1012=